sensor_id;sensor_type;location;lat;lon;timestamp;P1;durP1;ratioP1;P2;durP2;ratioP2
69981;SDS011;57319;56.274;43.980;2023-05-07T00:01:17;2.42;;;2.33;;
69981;SDS011;57319;56.274;43.980;2023-05-07T00:03:42;5.10;;;2.25;;
69981;SDS011;57319;56.274;43.980;2023-05-07T00:06:08;2.90;;;2.28;;
69981;SDS011;57319;56.274;43.980;2023-05-07T00:08:35;2.10;;;1.90;;
69981;SDS011;57319;56.274;43.980;2023-05-07T00:11:00;2.58;;;2.13;;
69981;SDS011;57319;56.274;43.980;2023-05-07T00:13:26;2.05;;;1.90;;
69981;SDS011;57319;56.274;43.980;2023-05-07T00:15:52;4.75;;;2.53;;
69981;SDS011;57319;56.274;43.980;2023-05-07T00:18:18;2.03;;;1.92;;
69981;SDS011;57319;56.274;43.980;2023-05-07T00:20:46;2.05;;;2.00;;
69981;SDS011;57319;56.274;43.980;2023-05-07T00:23:12;2.13;;;2.03;;
69981;SDS011;57319;56.274;43.980;2023-05-07T00:25:37;6.75;;;1.85;;
69981;SDS011;57319;56.274;43.980;2023-05-07T00:28:03;9.43;;;2.22;;
69981;SDS011;57319;56.274;43.980;2023-05-07T00:30:29;2.17;;;1.90;;
69981;SDS011;57319;56.274;43.980;2023-05-07T00:32:55;3.40;;;2.05;;
69981;SDS011;57319;56.274;43.980;2023-05-07T00:35:20;3.40;;;2.17;;
69981;SDS011;57319;56.274;43.980;2023-05-07T00:37:46;4.82;;;2.20;;
69981;SDS011;57319;56.274;43.980;2023-05-07T00:40:13;2.42;;;2.25;;
69981;SDS011;57319;56.274;43.980;2023-05-07T00:42:39;3.78;;;2.25;;
69981;SDS011;57319;56.274;43.980;2023-05-07T00:45:05;2.47;;;2.38;;
69981;SDS011;57319;56.274;43.980;2023-05-07T00:47:33;2.05;;;1.88;;
69981;SDS011;57319;56.274;43.980;2023-05-07T00:49:58;6.15;;;2.28;;
69981;SDS011;57319;56.274;43.980;2023-05-07T00:52:25;3.88;;;2.60;;
69981;SDS011;57319;56.274;43.980;2023-05-07T00:54:51;4.57;;;2.22;;
69981;SDS011;57319;56.274;43.980;2023-05-07T00:57:17;4.82;;;2.08;;
69981;SDS011;57319;56.274;43.980;2023-05-07T00:59:45;1.80;;;1.80;;
69981;SDS011;57319;56.274;43.980;2023-05-07T01:02:11;3.42;;;1.77;;
69981;SDS011;57319;56.274;43.980;2023-05-07T01:04:36;3.13;;;1.70;;
69981;SDS011;57319;56.274;43.980;2023-05-07T01:07:02;6.00;;;1.92;;
69981;SDS011;57319;56.274;43.980;2023-05-07T01:09:28;2.25;;;2.20;;
69981;SDS011;57319;56.274;43.980;2023-05-07T01:11:54;4.25;;;2.28;;
69981;SDS011;57319;56.274;43.980;2023-05-07T01:14:22;1.85;;;1.75;;
69981;SDS011;57319;56.274;43.980;2023-05-07T01:16:48;2.30;;;2.20;;
69981;SDS011;57319;56.274;43.980;2023-05-07T01:19:17;2.70;;;2.40;;
69981;SDS011;57319;56.274;43.980;2023-05-07T01:21:48;5.55;;;1.98;;
69981;SDS011;57319;56.274;43.980;2023-05-07T01:24:14;2.50;;;2.33;;
69981;SDS011;57319;56.274;43.980;2023-05-07T01:26:41;3.65;;;2.55;;
69981;SDS011;57319;56.274;43.980;2023-05-07T01:29:07;3.40;;;2.40;;
69981;SDS011;57319;56.274;43.980;2023-05-07T01:31:33;2.33;;;2.15;;
69981;SDS011;57319;56.274;43.980;2023-05-07T01:34:00;3.75;;;2.30;;
69981;SDS011;57319;56.274;43.980;2023-05-07T01:36:29;2.45;;;2.25;;
69981;SDS011;57319;56.274;43.980;2023-05-07T01:38:55;2.63;;;2.00;;
69981;SDS011;57319;56.274;43.980;2023-05-07T01:41:23;3.15;;;2.30;;
69981;SDS011;57319;56.274;43.980;2023-05-07T01:43:48;4.03;;;2.42;;
69981;SDS011;57319;56.274;43.980;2023-05-07T01:46:16;7.40;;;2.38;;
69981;SDS011;57319;56.274;43.980;2023-05-07T01:48:43;7.18;;;2.20;;
69981;SDS011;57319;56.274;43.980;2023-05-07T01:51:11;2.15;;;2.00;;
69981;SDS011;57319;56.274;43.980;2023-05-07T01:53:37;2.38;;;2.17;;
69981;SDS011;57319;56.274;43.980;2023-05-07T01:56:06;2.10;;;1.92;;
69981;SDS011;57319;56.274;43.980;2023-05-07T01:58:32;2.40;;;2.20;;
69981;SDS011;57319;56.274;43.980;2023-05-07T02:00:57;3.15;;;1.98;;
69981;SDS011;57319;56.274;43.980;2023-05-07T02:03:23;2.08;;;1.98;;
69981;SDS011;57319;56.274;43.980;2023-05-07T02:05:48;2.65;;;2.20;;
69981;SDS011;57319;56.274;43.980;2023-05-07T02:08:14;2.60;;;2.05;;
69981;SDS011;57319;56.274;43.980;2023-05-07T02:10:40;2.17;;;2.00;;
69981;SDS011;57319;56.274;43.980;2023-05-07T02:13:06;2.17;;;2.08;;
69981;SDS011;57319;56.274;43.980;2023-05-07T02:15:32;2.53;;;2.33;;
69981;SDS011;57319;56.274;43.980;2023-05-07T02:17:59;2.15;;;2.05;;
69981;SDS011;57319;56.274;43.980;2023-05-07T02:20:29;2.50;;;2.28;;
69981;SDS011;57319;56.274;43.980;2023-05-07T02:22:55;2.13;;;1.88;;
69981;SDS011;57319;56.274;43.980;2023-05-07T02:25:21;2.33;;;2.22;;
69981;SDS011;57319;56.274;43.980;2023-05-07T02:27:47;2.85;;;2.00;;
69981;SDS011;57319;56.274;43.980;2023-05-07T02:30:13;4.28;;;2.38;;
69981;SDS011;57319;56.274;43.980;2023-05-07T02:32:39;2.08;;;1.88;;
69981;SDS011;57319;56.274;43.980;2023-05-07T02:35:05;5.35;;;2.20;;
69981;SDS011;57319;56.274;43.980;2023-05-07T02:37:30;3.92;;;2.20;;
69981;SDS011;57319;56.274;43.980;2023-05-07T02:39:56;2.17;;;2.08;;
69981;SDS011;57319;56.274;43.980;2023-05-07T02:42:22;2.00;;;2.00;;
69981;SDS011;57319;56.274;43.980;2023-05-07T02:44:47;2.53;;;2.33;;
69981;SDS011;57319;56.274;43.980;2023-05-07T02:47:14;2.28;;;2.00;;
69981;SDS011;57319;56.274;43.980;2023-05-07T02:49:40;3.20;;;2.30;;
69981;SDS011;57319;56.274;43.980;2023-05-07T02:52:06;2.92;;;1.77;;
69981;SDS011;57319;56.274;43.980;2023-05-07T02:54:32;2.22;;;2.13;;
69981;SDS011;57319;56.274;43.980;2023-05-07T02:56:58;2.35;;;2.20;;
69981;SDS011;57319;56.274;43.980;2023-05-07T02:59:23;2.40;;;2.20;;
69981;SDS011;57319;56.274;43.980;2023-05-07T03:01:51;2.20;;;2.10;;
69981;SDS011;57319;56.274;43.980;2023-05-07T03:04:17;3.22;;;1.90;;
69981;SDS011;57319;56.274;43.980;2023-05-07T03:06:42;3.13;;;2.03;;
69981;SDS011;57319;56.274;43.980;2023-05-07T03:09:08;2.05;;;1.95;;
69981;SDS011;57319;56.274;43.980;2023-05-07T03:11:34;4.57;;;1.92;;
69981;SDS011;57319;56.274;43.980;2023-05-07T03:14:01;3.50;;;1.98;;
69981;SDS011;57319;56.274;43.980;2023-05-07T03:16:27;3.58;;;1.98;;
69981;SDS011;57319;56.274;43.980;2023-05-07T03:18:53;2.33;;;2.20;;
69981;SDS011;57319;56.274;43.980;2023-05-07T03:21:18;2.33;;;2.13;;
69981;SDS011;57319;56.274;43.980;2023-05-07T03:23:44;3.63;;;2.05;;
69981;SDS011;57319;56.274;43.980;2023-05-07T03:26:10;2.38;;;1.73;;
69981;SDS011;57319;56.274;43.980;2023-05-07T03:28:36;1.98;;;1.88;;
69981;SDS011;57319;56.274;43.980;2023-05-07T03:31:02;2.00;;;1.90;;
69981;SDS011;57319;56.274;43.980;2023-05-07T03:33:28;4.13;;;1.85;;
69981;SDS011;57319;56.274;43.980;2023-05-07T03:35:53;2.17;;;2.08;;
69981;SDS011;57319;56.274;43.980;2023-05-07T03:38:19;2.15;;;1.95;;
69981;SDS011;57319;56.274;43.980;2023-05-07T03:40:45;2.08;;;1.98;;
69981;SDS011;57319;56.274;43.980;2023-05-07T03:43:11;2.20;;;1.75;;
69981;SDS011;57319;56.274;43.980;2023-05-07T03:45:36;7.97;;;1.92;;
69981;SDS011;57319;56.274;43.980;2023-05-07T03:48:02;1.70;;;1.70;;
69981;SDS011;57319;56.274;43.980;2023-05-07T03:50:28;3.97;;;1.80;;
69981;SDS011;57319;56.274;43.980;2023-05-07T03:52:53;1.73;;;1.67;;
69981;SDS011;57319;56.274;43.980;2023-05-07T03:55:19;1.58;;;1.58;;
69981;SDS011;57319;56.274;43.980;2023-05-07T03:57:45;2.85;;;1.73;;
69981;SDS011;57319;56.274;43.980;2023-05-07T04:00:11;7.43;;;1.60;;
69981;SDS011;57319;56.274;43.980;2023-05-07T04:02:37;3.80;;;1.55;;
69981;SDS011;57319;56.274;43.980;2023-05-07T04:05:02;1.45;;;1.35;;
69981;SDS011;57319;56.274;43.980;2023-05-07T04:07:29;2.05;;;1.60;;
69981;SDS011;57319;56.274;43.980;2023-05-07T04:09:54;1.77;;;1.67;;
69981;SDS011;57319;56.274;43.980;2023-05-07T04:12:20;1.45;;;1.42;;
69981;SDS011;57319;56.274;43.980;2023-05-07T04:14:46;1.42;;;1.40;;
69981;SDS011;57319;56.274;43.980;2023-05-07T04:17:11;1.70;;;1.60;;
69981;SDS011;57319;56.274;43.980;2023-05-07T04:19:37;1.67;;;1.58;;
69981;SDS011;57319;56.274;43.980;2023-05-07T04:22:03;4.15;;;1.90;;
69981;SDS011;57319;56.274;43.980;2023-05-07T04:24:31;3.50;;;1.83;;
69981;SDS011;57319;56.274;43.980;2023-05-07T04:26:58;1.67;;;1.58;;
69981;SDS011;57319;56.274;43.980;2023-05-07T04:29:23;1.98;;;1.83;;
69981;SDS011;57319;56.274;43.980;2023-05-07T04:31:49;1.75;;;1.65;;
69981;SDS011;57319;56.274;43.980;2023-05-07T04:34:15;1.42;;;1.42;;
69981;SDS011;57319;56.274;43.980;2023-05-07T04:36:41;2.55;;;1.52;;
69981;SDS011;57319;56.274;43.980;2023-05-07T04:39:07;1.77;;;1.67;;
69981;SDS011;57319;56.274;43.980;2023-05-07T04:41:35;1.50;;;1.50;;
69981;SDS011;57319;56.274;43.980;2023-05-07T04:44:01;2.00;;;1.60;;
69981;SDS011;57319;56.274;43.980;2023-05-07T04:46:30;2.55;;;1.33;;
69981;SDS011;57319;56.274;43.980;2023-05-07T04:48:55;1.45;;;1.40;;
69981;SDS011;57319;56.274;43.980;2023-05-07T04:51:21;1.55;;;1.42;;
69981;SDS011;57319;56.274;43.980;2023-05-07T04:53:47;1.35;;;1.35;;
69981;SDS011;57319;56.274;43.980;2023-05-07T04:56:13;1.13;;;1.13;;
69981;SDS011;57319;56.274;43.980;2023-05-07T04:58:39;2.53;;;1.40;;
69981;SDS011;57319;56.274;43.980;2023-05-07T05:01:05;2.80;;;1.40;;
69981;SDS011;57319;56.274;43.980;2023-05-07T05:03:31;3.17;;;1.45;;
69981;SDS011;57319;56.274;43.980;2023-05-07T05:05:57;2.97;;;1.65;;
69981;SDS011;57319;56.274;43.980;2023-05-07T05:08:25;1.65;;;1.35;;
69981;SDS011;57319;56.274;43.980;2023-05-07T05:10:50;1.10;;;1.10;;
69981;SDS011;57319;56.274;43.980;2023-05-07T05:13:16;2.15;;;1.40;;
69981;SDS011;57319;56.274;43.980;2023-05-07T05:15:42;1.20;;;1.00;;
69981;SDS011;57319;56.274;43.980;2023-05-07T05:18:07;1.50;;;1.40;;
69981;SDS011;57319;56.274;43.980;2023-05-07T05:20:33;3.22;;;1.63;;
69981;SDS011;57319;56.274;43.980;2023-05-07T05:22:59;1.58;;;1.48;;
69981;SDS011;57319;56.274;43.980;2023-05-07T05:25:24;1.50;;;1.42;;
69981;SDS011;57319;56.274;43.980;2023-05-07T05:27:50;2.55;;;1.30;;
69981;SDS011;57319;56.274;43.980;2023-05-07T05:30:16;4.78;;;1.73;;
69981;SDS011;57319;56.274;43.980;2023-05-07T05:32:41;1.38;;;1.27;;
69981;SDS011;57319;56.274;43.980;2023-05-07T05:35:07;1.55;;;1.27;;
69981;SDS011;57319;56.274;43.980;2023-05-07T05:37:33;2.47;;;1.10;;
69981;SDS011;57319;56.274;43.980;2023-05-07T05:39:59;3.63;;;1.35;;
69981;SDS011;57319;56.274;43.980;2023-05-07T05:42:24;1.17;;;1.13;;
69981;SDS011;57319;56.274;43.980;2023-05-07T05:44:50;2.05;;;1.02;;
69981;SDS011;57319;56.274;43.980;2023-05-07T05:47:16;6.63;;;1.33;;
69981;SDS011;57319;56.274;43.980;2023-05-07T05:49:41;1.52;;;0.88;;
69981;SDS011;57319;56.274;43.980;2023-05-07T05:52:08;1.20;;;1.20;;
69981;SDS011;57319;56.274;43.980;2023-05-07T05:54:34;1.23;;;1.20;;
69981;SDS011;57319;56.274;43.980;2023-05-07T05:57:00;3.22;;;1.10;;
69981;SDS011;57319;56.274;43.980;2023-05-07T05:59:29;2.65;;;1.30;;
69981;SDS011;57319;56.274;43.980;2023-05-07T06:01:55;1.00;;;1.00;;
69981;SDS011;57319;56.274;43.980;2023-05-07T06:04:20;1.80;;;1.17;;
69981;SDS011;57319;56.274;43.980;2023-05-07T06:06:46;2.78;;;0.90;;
69981;SDS011;57319;56.274;43.980;2023-05-07T06:09:11;7.93;;;1.27;;
69981;SDS011;57319;56.274;43.980;2023-05-07T06:11:37;2.10;;;1.10;;
69981;SDS011;57319;56.274;43.980;2023-05-07T06:14:03;1.67;;;1.20;;
69981;SDS011;57319;56.274;43.980;2023-05-07T06:16:28;2.55;;;0.80;;
69981;SDS011;57319;56.274;43.980;2023-05-07T06:18:54;1.83;;;1.10;;
69981;SDS011;57319;56.274;43.980;2023-05-07T06:21:20;0.98;;;0.98;;
69981;SDS011;57319;56.274;43.980;2023-05-07T06:23:46;2.80;;;1.05;;
69981;SDS011;57319;56.274;43.980;2023-05-07T06:26:12;4.82;;;1.30;;
69981;SDS011;57319;56.274;43.980;2023-05-07T06:28:37;0.80;;;0.80;;
69981;SDS011;57319;56.274;43.980;2023-05-07T06:31:15;0.85;;;0.85;;
69981;SDS011;57319;56.274;43.980;2023-05-07T06:33:48;0.80;;;0.80;;
69981;SDS011;57319;56.274;43.980;2023-05-07T06:36:14;6.38;;;1.33;;
69981;SDS011;57319;56.274;43.980;2023-05-07T06:38:40;4.47;;;0.80;;
69981;SDS011;57319;56.274;43.980;2023-05-07T06:41:06;1.05;;;0.80;;
69981;SDS011;57319;56.274;43.980;2023-05-07T06:43:32;1.13;;;0.80;;
69981;SDS011;57319;56.274;43.980;2023-05-07T06:45:58;0.80;;;0.80;;
69981;SDS011;57319;56.274;43.980;2023-05-07T06:48:23;3.80;;;1.25;;
69981;SDS011;57319;56.274;43.980;2023-05-07T06:50:49;8.35;;;1.23;;
69981;SDS011;57319;56.274;43.980;2023-05-07T06:53:15;2.40;;;0.90;;
69981;SDS011;57319;56.274;43.980;2023-05-07T06:55:41;0.65;;;0.65;;
69981;SDS011;57319;56.274;43.980;2023-05-07T06:58:07;3.28;;;1.00;;
69981;SDS011;57319;56.274;43.980;2023-05-07T07:00:32;0.90;;;0.90;;
69981;SDS011;57319;56.274;43.980;2023-05-07T07:02:58;2.92;;;0.82;;
69981;SDS011;57319;56.274;43.980;2023-05-07T07:05:25;0.80;;;0.80;;
69981;SDS011;57319;56.274;43.980;2023-05-07T07:07:51;1.52;;;1.13;;
69981;SDS011;57319;56.274;43.980;2023-05-07T07:10:20;0.93;;;0.90;;
69981;SDS011;57319;56.274;43.980;2023-05-07T07:12:46;1.58;;;1.13;;
69981;SDS011;57319;56.274;43.980;2023-05-07T07:15:12;1.60;;;0.75;;
69981;SDS011;57319;56.274;43.980;2023-05-07T07:17:39;1.20;;;0.75;;
69981;SDS011;57319;56.274;43.980;2023-05-07T07:20:04;0.68;;;0.68;;
69981;SDS011;57319;56.274;43.980;2023-05-07T07:22:31;0.50;;;0.50;;
69981;SDS011;57319;56.274;43.980;2023-05-07T07:24:56;6.93;;;1.17;;
69981;SDS011;57319;56.274;43.980;2023-05-07T07:27:22;2.45;;;1.10;;
69981;SDS011;57319;56.274;43.980;2023-05-07T07:29:48;0.80;;;0.80;;
69981;SDS011;57319;56.274;43.980;2023-05-07T07:32:13;1.95;;;1.15;;
69981;SDS011;57319;56.274;43.980;2023-05-07T07:34:39;1.58;;;1.27;;
69981;SDS011;57319;56.274;43.980;2023-05-07T07:37:05;0.82;;;0.80;;
69981;SDS011;57319;56.274;43.980;2023-05-07T07:39:31;1.92;;;0.60;;
69981;SDS011;57319;56.274;43.980;2023-05-07T07:41:58;8.65;;;0.80;;
69981;SDS011;57319;56.274;43.980;2023-05-07T07:44:23;1.88;;;0.63;;
69981;SDS011;57319;56.274;43.980;2023-05-07T07:46:49;0.65;;;0.65;;
69981;SDS011;57319;56.274;43.980;2023-05-07T07:49:15;3.83;;;1.10;;
69981;SDS011;57319;56.274;43.980;2023-05-07T07:51:41;0.80;;;0.80;;
69981;SDS011;57319;56.274;43.980;2023-05-07T07:54:07;1.75;;;0.77;;
69981;SDS011;57319;56.274;43.980;2023-05-07T07:56:33;4.60;;;0.70;;
69981;SDS011;57319;56.274;43.980;2023-05-07T07:58:59;0.80;;;0.80;;
69981;SDS011;57319;56.274;43.980;2023-05-07T08:01:25;0.68;;;0.68;;
69981;SDS011;57319;56.274;43.980;2023-05-07T08:03:51;0.65;;;0.63;;
69981;SDS011;57319;56.274;43.980;2023-05-07T08:06:17;2.20;;;1.00;;
69981;SDS011;57319;56.274;43.980;2023-05-07T08:08:43;0.70;;;0.70;;
69981;SDS011;57319;56.274;43.980;2023-05-07T08:11:09;1.80;;;1.10;;
69981;SDS011;57319;56.274;43.980;2023-05-07T08:13:35;1.35;;;0.80;;
69981;SDS011;57319;56.274;43.980;2023-05-07T08:16:01;0.77;;;0.77;;
69981;SDS011;57319;56.274;43.980;2023-05-07T08:18:27;4.38;;;0.70;;
69981;SDS011;57319;56.274;43.980;2023-05-07T08:20:54;3.17;;;1.30;;
69981;SDS011;57319;56.274;43.980;2023-05-07T08:23:20;7.38;;;1.10;;
69981;SDS011;57319;56.274;43.980;2023-05-07T08:25:46;0.73;;;0.73;;
69981;SDS011;57319;56.274;43.980;2023-05-07T08:28:12;7.63;;;1.05;;
69981;SDS011;57319;56.274;43.980;2023-05-07T08:30:37;0.73;;;0.70;;
69981;SDS011;57319;56.274;43.980;2023-05-07T08:33:03;0.60;;;0.60;;
69981;SDS011;57319;56.274;43.980;2023-05-07T08:35:29;0.70;;;0.70;;
69981;SDS011;57319;56.274;43.980;2023-05-07T08:37:54;5.32;;;0.90;;
69981;SDS011;57319;56.274;43.980;2023-05-07T08:40:20;5.22;;;1.10;;
69981;SDS011;57319;56.274;43.980;2023-05-07T08:42:50;0.82;;;0.77;;
69981;SDS011;57319;56.274;43.980;2023-05-07T08:45:17;0.95;;;0.95;;
69981;SDS011;57319;56.274;43.980;2023-05-07T08:47:46;5.10;;;1.30;;
69981;SDS011;57319;56.274;43.980;2023-05-07T08:50:15;4.63;;;1.83;;
69981;SDS011;57319;56.274;43.980;2023-05-07T08:52:41;1.50;;;1.35;;
69981;SDS011;57319;56.274;43.980;2023-05-07T08:55:08;0.77;;;0.77;;
69981;SDS011;57319;56.274;43.980;2023-05-07T08:57:34;1.00;;;0.90;;
69981;SDS011;57319;56.274;43.980;2023-05-07T09:00:00;1.15;;;1.15;;
69981;SDS011;57319;56.274;43.980;2023-05-07T09:02:31;1.13;;;1.13;;
69981;SDS011;57319;56.274;43.980;2023-05-07T09:04:56;0.80;;;0.80;;
69981;SDS011;57319;56.274;43.980;2023-05-07T09:07:22;1.15;;;0.90;;
69981;SDS011;57319;56.274;43.980;2023-05-07T09:09:48;1.38;;;0.90;;
69981;SDS011;57319;56.274;43.980;2023-05-07T09:12:14;0.95;;;0.95;;
69981;SDS011;57319;56.274;43.980;2023-05-07T09:14:40;6.53;;;0.90;;
69981;SDS011;57319;56.274;43.980;2023-05-07T09:17:05;2.38;;;0.77;;
69981;SDS011;57319;56.274;43.980;2023-05-07T09:19:31;4.95;;;0.75;;
69981;SDS011;57319;56.274;43.980;2023-05-07T09:22:03;1.55;;;0.77;;
69981;SDS011;57319;56.274;43.980;2023-05-07T09:24:30;5.40;;;0.73;;
69981;SDS011;57319;56.274;43.980;2023-05-07T09:27:00;4.53;;;1.27;;
69981;SDS011;57319;56.274;43.980;2023-05-07T09:29:27;5.75;;;0.90;;
69981;SDS011;57319;56.274;43.980;2023-05-07T09:31:55;0.70;;;0.70;;
69981;SDS011;57319;56.274;43.980;2023-05-07T09:34:21;0.75;;;0.75;;
69981;SDS011;57319;56.274;43.980;2023-05-07T09:36:47;8.23;;;1.05;;
69981;SDS011;57319;56.274;43.980;2023-05-07T09:39:13;1.75;;;1.13;;
69981;SDS011;57319;56.274;43.980;2023-05-07T09:41:45;4.80;;;0.88;;
69981;SDS011;57319;56.274;43.980;2023-05-07T09:44:12;1.38;;;0.73;;
69981;SDS011;57319;56.274;43.980;2023-05-07T09:46:40;3.85;;;0.77;;
69981;SDS011;57319;56.274;43.980;2023-05-07T09:49:09;3.72;;;0.90;;
69981;SDS011;57319;56.274;43.980;2023-05-07T09:51:47;0.80;;;0.80;;
69981;SDS011;57319;56.274;43.980;2023-05-07T09:54:15;1.00;;;1.00;;
69981;SDS011;57319;56.274;43.980;2023-05-07T09:56:42;2.65;;;1.30;;
69981;SDS011;57319;56.274;43.980;2023-05-07T09:59:10;1.17;;;0.80;;
69981;SDS011;57319;56.274;43.980;2023-05-07T10:01:38;2.83;;;1.05;;
69981;SDS011;57319;56.274;43.980;2023-05-07T10:04:06;9.82;;;0.98;;
69981;SDS011;57319;56.274;43.980;2023-05-07T10:06:36;2.72;;;1.00;;
69981;SDS011;57319;56.274;43.980;2023-05-07T10:09:05;7.43;;;1.23;;
69981;SDS011;57319;56.274;43.980;2023-05-07T10:11:32;2.55;;;1.20;;
69981;SDS011;57319;56.274;43.980;2023-05-07T10:13:59;8.32;;;1.20;;
69981;SDS011;57319;56.274;43.980;2023-05-07T10:16:31;2.53;;;1.00;;
69981;SDS011;57319;56.274;43.980;2023-05-07T10:19:05;3.75;;;1.30;;
69981;SDS011;57319;56.274;43.980;2023-05-07T10:21:34;1.88;;;0.98;;
69981;SDS011;57319;56.274;43.980;2023-05-07T10:24:13;0.85;;;0.85;;
69981;SDS011;57319;56.274;43.980;2023-05-07T10:26:43;2.63;;;1.30;;
69981;SDS011;57319;56.274;43.980;2023-05-07T10:29:15;1.08;;;1.08;;
69981;SDS011;57319;56.274;43.980;2023-05-07T10:34:16;1.20;;;1.20;;
69981;SDS011;57319;56.274;43.980;2023-05-07T10:36:46;1.48;;;1.38;;
69981;SDS011;57319;56.274;43.980;2023-05-07T10:39:13;1.15;;;1.15;;
69981;SDS011;57319;56.274;43.980;2023-05-07T10:41:39;6.13;;;1.40;;
69981;SDS011;57319;56.274;43.980;2023-05-07T10:44:05;1.35;;;1.35;;
69981;SDS011;57319;56.274;43.980;2023-05-07T10:46:31;1.85;;;1.08;;
69981;SDS011;57319;56.274;43.980;2023-05-07T10:51:26;1.35;;;1.25;;
69981;SDS011;57319;56.274;43.980;2023-05-07T10:56:40;8.68;;;1.30;;
69981;SDS011;57319;56.274;43.980;2023-05-07T11:04:22;7.45;;;1.60;;
69981;SDS011;57319;56.274;43.980;2023-05-07T11:13:02;4.28;;;1.58;;
69981;SDS011;57319;56.274;43.980;2023-05-07T11:15:12;5.35;;;1.60;;
69981;SDS011;57319;56.274;43.980;2023-05-07T11:17:59;5.85;;;1.30;;
69981;SDS011;57319;56.274;43.980;2023-05-07T11:26:06;3.15;;;1.25;;
69981;SDS011;57319;56.274;43.980;2023-05-07T11:28:39;1.40;;;1.25;;
69981;SDS011;57319;56.274;43.980;2023-05-07T11:31:06;1.52;;;1.27;;
69981;SDS011;57319;56.274;43.980;2023-05-07T11:33:33;1.40;;;1.33;;
69981;SDS011;57319;56.274;43.980;2023-05-07T11:36:00;1.30;;;1.20;;
69981;SDS011;57319;56.274;43.980;2023-05-07T11:38:28;8.45;;;1.77;;
69981;SDS011;57319;56.274;43.980;2023-05-07T11:40:58;1.27;;;1.05;;
69981;SDS011;57319;56.274;43.980;2023-05-07T11:43:29;1.48;;;1.38;;
69981;SDS011;57319;56.274;43.980;2023-05-07T11:45:54;1.13;;;1.10;;
69981;SDS011;57319;56.274;43.980;2023-05-07T11:48:31;7.47;;;1.17;;
69981;SDS011;57319;56.274;43.980;2023-05-07T11:53:27;5.20;;;1.95;;
69981;SDS011;57319;56.274;43.980;2023-05-07T11:56:00;3.00;;;1.20;;
69981;SDS011;57319;56.274;43.980;2023-05-07T11:58:31;2.10;;;1.30;;
69981;SDS011;57319;56.274;43.980;2023-05-07T12:00:56;1.75;;;1.20;;
69981;SDS011;57319;56.274;43.980;2023-05-07T12:03:22;3.10;;;1.00;;
69981;SDS011;57319;56.274;43.980;2023-05-07T12:05:48;1.27;;;1.27;;
69981;SDS011;57319;56.274;43.980;2023-05-07T12:08:17;2.28;;;1.40;;
69981;SDS011;57319;56.274;43.980;2023-05-07T12:10:43;1.25;;;1.25;;
69981;SDS011;57319;56.274;43.980;2023-05-07T12:15:42;7.70;;;2.25;;
69981;SDS011;57319;56.274;43.980;2023-05-07T12:18:08;7.20;;;1.48;;
69981;SDS011;57319;56.274;43.980;2023-05-07T12:20:35;3.40;;;1.17;;
69981;SDS011;57319;56.274;43.980;2023-05-07T12:23:01;11.38;;;1.75;;
69981;SDS011;57319;56.274;43.980;2023-05-07T12:25:34;4.28;;;1.27;;
69981;SDS011;57319;56.274;43.980;2023-05-07T12:28:01;8.23;;;1.45;;
69981;SDS011;57319;56.274;43.980;2023-05-07T12:30:30;6.63;;;1.52;;
69981;SDS011;57319;56.274;43.980;2023-05-07T12:33:05;1.33;;;1.13;;
69981;SDS011;57319;56.274;43.980;2023-05-07T12:35:32;1.73;;;1.35;;
69981;SDS011;57319;56.274;43.980;2023-05-07T12:38:08;1.50;;;1.40;;
69981;SDS011;57319;56.274;43.980;2023-05-07T12:40:36;9.77;;;1.50;;
69981;SDS011;57319;56.274;43.980;2023-05-07T12:43:03;9.73;;;1.30;;
69981;SDS011;57319;56.274;43.980;2023-05-07T12:45:29;5.82;;;1.40;;
69981;SDS011;57319;56.274;43.980;2023-05-07T12:47:55;7.18;;;1.10;;
69981;SDS011;57319;56.274;43.980;2023-05-07T12:50:22;1.27;;;1.10;;
69981;SDS011;57319;56.274;43.980;2023-05-07T12:52:48;2.90;;;1.38;;
69981;SDS011;57319;56.274;43.980;2023-05-07T12:55:15;2.92;;;1.10;;
69981;SDS011;57319;56.274;43.980;2023-05-07T12:57:42;1.40;;;1.30;;
69981;SDS011;57319;56.274;43.980;2023-05-07T13:00:13;4.13;;;1.20;;
69981;SDS011;57319;56.274;43.980;2023-05-07T13:02:40;3.88;;;1.40;;
69981;SDS011;57319;56.274;43.980;2023-05-07T13:05:07;2.88;;;1.60;;
69981;SDS011;57319;56.274;43.980;2023-05-07T13:07:33;6.95;;;1.70;;
69981;SDS011;57319;56.274;43.980;2023-05-07T13:09:59;3.65;;;1.40;;
69981;SDS011;57319;56.274;43.980;2023-05-07T13:12:25;2.10;;;1.38;;
69981;SDS011;57319;56.274;43.980;2023-05-07T13:14:51;7.22;;;1.25;;
69981;SDS011;57319;56.274;43.980;2023-05-07T13:17:17;1.35;;;1.30;;
69981;SDS011;57319;56.274;43.980;2023-05-07T13:19:43;2.63;;;1.55;;
69981;SDS011;57319;56.274;43.980;2023-05-07T13:22:09;5.88;;;1.10;;
69981;SDS011;57319;56.274;43.980;2023-05-07T13:24:36;2.33;;;1.48;;
69981;SDS011;57319;56.274;43.980;2023-05-07T13:27:01;9.77;;;1.15;;
69981;SDS011;57319;56.274;43.980;2023-05-07T13:29:28;1.73;;;1.20;;
69981;SDS011;57319;56.274;43.980;2023-05-07T13:31:58;6.38;;;1.35;;
69981;SDS011;57319;56.274;43.980;2023-05-07T13:34:25;1.67;;;1.58;;
69981;SDS011;57319;56.274;43.980;2023-05-07T13:36:50;1.00;;;1.00;;
69981;SDS011;57319;56.274;43.980;2023-05-07T13:39:16;6.20;;;1.08;;
69981;SDS011;57319;56.274;43.980;2023-05-07T13:41:42;3.88;;;1.50;;
69981;SDS011;57319;56.274;43.980;2023-05-07T13:44:07;4.72;;;1.25;;
69981;SDS011;57319;56.274;43.980;2023-05-07T13:46:33;7.82;;;1.83;;
69981;SDS011;57319;56.274;43.980;2023-05-07T13:48:59;6.97;;;1.50;;
69981;SDS011;57319;56.274;43.980;2023-05-07T13:51:25;7.57;;;1.30;;
69981;SDS011;57319;56.274;43.980;2023-05-07T13:53:51;6.55;;;1.40;;
69981;SDS011;57319;56.274;43.980;2023-05-07T13:56:17;2.80;;;1.25;;
69981;SDS011;57319;56.274;43.980;2023-05-07T13:58:43;10.70;;;1.63;;
69981;SDS011;57319;56.274;43.980;2023-05-07T14:01:09;8.13;;;1.25;;
69981;SDS011;57319;56.274;43.980;2023-05-07T14:03:34;3.95;;;1.13;;
69981;SDS011;57319;56.274;43.980;2023-05-07T14:06:03;0.95;;;0.95;;
69981;SDS011;57319;56.274;43.980;2023-05-07T14:08:29;2.00;;;0.90;;
69981;SDS011;57319;56.274;43.980;2023-05-07T14:10:54;1.33;;;1.33;;
69981;SDS011;57319;56.274;43.980;2023-05-07T14:13:20;1.38;;;1.33;;
69981;SDS011;57319;56.274;43.980;2023-05-07T14:15:46;1.27;;;1.27;;
69981;SDS011;57319;56.274;43.980;2023-05-07T14:18:13;1.20;;;1.08;;
69981;SDS011;57319;56.274;43.980;2023-05-07T14:20:39;1.60;;;1.50;;
69981;SDS011;57319;56.274;43.980;2023-05-07T14:23:05;1.38;;;1.20;;
69981;SDS011;57319;56.274;43.980;2023-05-07T14:25:30;2.17;;;1.27;;
69981;SDS011;57319;56.274;43.980;2023-05-07T14:27:56;1.65;;;1.55;;
69981;SDS011;57319;56.274;43.980;2023-05-07T14:30:22;0.88;;;0.88;;
69981;SDS011;57319;56.274;43.980;2023-05-07T14:32:49;7.35;;;1.10;;
69981;SDS011;57319;56.274;43.980;2023-05-07T14:35:16;8.73;;;1.17;;
69981;SDS011;57319;56.274;43.980;2023-05-07T14:37:42;2.08;;;1.15;;
69981;SDS011;57319;56.274;43.980;2023-05-07T14:40:08;5.03;;;1.38;;
69981;SDS011;57319;56.274;43.980;2023-05-07T14:42:34;11.85;;;2.20;;
69981;SDS011;57319;56.274;43.980;2023-05-07T14:45:00;1.67;;;1.25;;
69981;SDS011;57319;56.274;43.980;2023-05-07T14:47:26;1.00;;;1.00;;
69981;SDS011;57319;56.274;43.980;2023-05-07T14:49:52;4.60;;;1.45;;
69981;SDS011;57319;56.274;43.980;2023-05-07T14:52:19;2.28;;;0.90;;
69981;SDS011;57319;56.274;43.980;2023-05-07T14:54:45;5.55;;;0.95;;
69981;SDS011;57319;56.274;43.980;2023-05-07T14:57:14;6.50;;;1.35;;
69981;SDS011;57319;56.274;43.980;2023-05-07T14:59:41;1.88;;;1.10;;